Hermes — A8YE4 — position and weather

sailwx.info

Track history (hours):
 
Tides and Currents Weather Stations Pressure Air Temp Water Temp Dewpoint Dewpoint Depression Visibility Wind Speed Wind Dir Waves Ship Positions

Hermes

Last reported at 2018-Jan-22 14:02 UTC. Time now 2018-Feb-22 03:22 UTC.
Position N 33°26' W 018°48'.
Warning: this ship's position is 30 days out of date.

Length 225 m; draft 13.3 m.

Type: Cargo ship. MMSI: 635727503.

Date/timePositionNaut miles runAvg speedWind from/ knotsBaromVisibWave heightAir tempDewpointWater temp
2018-Jan-22 14:02N 33°26' W 018°48'212.8
2018-Jan-22 13:53N 33°26' W 018°46'512.7
2018-Jan-22 13:29N 33°28' W 018°40'8113.2
2018-Jan-22 07:18N 33°48' W 017°05'413.9
2018-Jan-22 07:00N 33°49' W 017°00'1513.8
2018-Jan-22 05:54N 33°53' W 016°43'613.9
2018-Jan-22 05:30N 33°55' W 016°36'813.7
2018-Jan-22 04:57N 33°57' W 016°27'613.7
2018-Jan-22 04:31N 33°58' W 016°20'813.6
2018-Jan-22 03:57N 34°00' W 016°11'1013.5
2018-Jan-22 03:11N 34°03' W 015°59'213.4
2018-Jan-22 03:00N 34°04' W 015°56'713.3
2018-Jan-22 02:30N 34°06' W 015°49'813.5
2018-Jan-22 01:57N 34°08' W 015°40'1213.5
2018-Jan-22 01:02N 34°12' W 015°26'1313.6
2018-Jan-22 00:05N 34°15' W 015°11'513.5
2018-Jan-21 23:43N 34°16' W 015°05'313.4
2018-Jan-21 23:29N 34°17' W 015°01'713.9
2018-Jan-21 23:00N 34°19' W 014°54'713.9
2018-Jan-21 22:29N 34°20' W 014°45'713.9
2018-Jan-21 21:58N 34°22' W 014°37'613.7
2018-Jan-21 21:30N 34°24' W 014°29'713.9
2018-Jan-21 21:01N 34°26' W 014°21'713.9
2018-Jan-21 20:29N 34°28' W 014°13'713.8
2018-Jan-21 20:00N 34°29' W 014°05'2013.9
2018-Jan-21 18:33N 34°35' W 013°41'113.8
2018-Jan-21 18:30N 34°36' W 013°41'5313.8
2018-Jan-21 14:40N 34°50' W 012°39'1213.8
2018-Jan-21 13:45N 34°56' W 012°25'1411.7
2018-Jan-21 12:32N 34°55' W 012°08'2113.7
2018-Jan-21 11:01N 35°02' W 011°44'7713.0
2018-Jan-21 05:05N 35°19' W 010°12'113.6
2018-Jan-21 04:59N 35°20' W 010°11'4813.7
2018-Jan-21 01:30N 35°32' W 009°14'813.5
2018-Jan-21 00:54N 35°34' W 009°05'613.4
2018-Jan-21 00:29N 35°35' W 008°58'6513.6
2018-Jan-20 19:41N 35°52' W 007°40'10213.3
2018-Jan-20 12:00N 35°58' W 005°34'511.0
2018-Jan-20 11:31N 36°00' W 005°28'4 8.1
2018-Jan-20 11:00N 36°03' W 005°24'5 0.8
2018-Jan-20 05:23N 36°08' W 005°23'0 0.1
2018-Jan-20 04:50N 36°08' W 005°23'0 0.0
2018-Jan-20 03:38N 36°08' W 005°23'0 0.2
2018-Jan-20 03:29N 36°08' W 005°23'0 0.0
2018-Jan-20 02:50N 36°08' W 005°23'0 0.0
2018-Jan-20 02:23N 36°08' W 005°23'0 0.1
2018-Jan-20 00:05N 36°08' W 005°23'0 0.1
2018-Jan-19 23:50N 36°08' W 005°23'0 0.1
2018-Jan-19 23:26N 36°08' W 005°23'0 0.1
2018-Jan-19 22:56N 36°08' W 005°23'0 0.1
2018-Jan-19 22:29N 36°08' W 005°23'0 0.1
2018-Jan-19 22:00N 36°08' W 005°23'2 3.7
2018-Jan-19 21:30N 36°06' W 005°22'3 5.6
2018-Jan-19 21:00N 36°04' W 005°19'3 6.9
2018-Jan-19 20:30N 36°05' W 005°15'3 6.4
2018-Jan-19 20:00N 36°06' W 005°11'1 2.7
2018-Jan-19 19:30N 36°05' W 005°10'4 7.7
2018-Jan-19 19:00N 36°06' W 005°05'5 9.9
2018-Jan-19 18:30N 36°07' W 004°59'510.3
2018-Jan-19 18:00N 36°08' W 004°53'510.4
2018-Jan-19 17:30N 36°09' W 004°47'611.2
2018-Jan-19 16:59N 36°10' W 004°39'611.8
2018-Jan-19 16:29N 36°11' W 004°32'  
Track history (hours):
 
Tides and Currents Weather Stations Pressure Air Temp Water Temp Dewpoint Dewpoint Depression Visibility Wind Speed Wind Dir Waves Ship Positions

Hermes

Last reported at 2018-Jan-22 14:02 UTC. Time now 2018-Feb-22 03:22 UTC.
Position N 33°26' W 018°48'.
Warning: this ship's position is 30 days out of date.

Length 225 m; draft 13.3 m.

Type: Cargo ship. MMSI: 635727503.

Date/timePositionNaut miles runAvg speedWind from/ knotsBaromVisibWave heightAir tempDewpointWater temp
2018-Jan-22 14:02N 33°26' W 018°48'212.8
2018-Jan-22 13:53N 33°26' W 018°46'512.7
2018-Jan-22 13:29N 33°28' W 018°40'8113.2
2018-Jan-22 07:18N 33°48' W 017°05'413.9
2018-Jan-22 07:00N 33°49' W 017°00'1513.8
2018-Jan-22 05:54N 33°53' W 016°43'613.9
2018-Jan-22 05:30N 33°55' W 016°36'813.7
2018-Jan-22 04:57N 33°57' W 016°27'613.7
2018-Jan-22 04:31N 33°58' W 016°20'813.6
2018-Jan-22 03:57N 34°00' W 016°11'1013.5
2018-Jan-22 03:11N 34°03' W 015°59'213.4
2018-Jan-22 03:00N 34°04' W 015°56'713.3
2018-Jan-22 02:30N 34°06' W 015°49'813.5
2018-Jan-22 01:57N 34°08' W 015°40'1213.5
2018-Jan-22 01:02N 34°12' W 015°26'1313.6
2018-Jan-22 00:05N 34°15' W 015°11'513.5
2018-Jan-21 23:43N 34°16' W 015°05'313.4
2018-Jan-21 23:29N 34°17' W 015°01'713.9
2018-Jan-21 23:00N 34°19' W 014°54'713.9
2018-Jan-21 22:29N 34°20' W 014°45'713.9
2018-Jan-21 21:58N 34°22' W 014°37'613.7
2018-Jan-21 21:30N 34°24' W 014°29'713.9
2018-Jan-21 21:01N 34°26' W 014°21'713.9
2018-Jan-21 20:29N 34°28' W 014°13'713.8
2018-Jan-21 20:00N 34°29' W 014°05'2013.9
2018-Jan-21 18:33N 34°35' W 013°41'113.8
2018-Jan-21 18:30N 34°36' W 013°41'5313.8
2018-Jan-21 14:40N 34°50' W 012°39'1213.8
2018-Jan-21 13:45N 34°56' W 012°25'1411.7
2018-Jan-21 12:32N 34°55' W 012°08'2113.7
2018-Jan-21 11:01N 35°02' W 011°44'7713.0
2018-Jan-21 05:05N 35°19' W 010°12'113.6
2018-Jan-21 04:59N 35°20' W 010°11'4813.7
2018-Jan-21 01:30N 35°32' W 009°14'813.5
2018-Jan-21 00:54N 35°34' W 009°05'613.4
2018-Jan-21 00:29N 35°35' W 008°58'6513.6
2018-Jan-20 19:41N 35°52' W 007°40'10213.3
2018-Jan-20 12:00N 35°58' W 005°34'511.0
2018-Jan-20 11:31N 36°00' W 005°28'4 8.1
2018-Jan-20 11:00N 36°03' W 005°24'5 0.8
2018-Jan-20 05:23N 36°08' W 005°23'0 0.1
2018-Jan-20 04:50N 36°08' W 005°23'0 0.0
2018-Jan-20 03:38N 36°08' W 005°23'0 0.2
2018-Jan-20 03:29N 36°08' W 005°23'0 0.0
2018-Jan-20 02:50N 36°08' W 005°23'0 0.0
2018-Jan-20 02:23N 36°08' W 005°23'0 0.1
2018-Jan-20 00:05N 36°08' W 005°23'0 0.1
2018-Jan-19 23:50N 36°08' W 005°23'0 0.1
2018-Jan-19 23:26N 36°08' W 005°23'0 0.1
2018-Jan-19 22:56N 36°08' W 005°23'0 0.1
2018-Jan-19 22:29N 36°08' W 005°23'0 0.1
2018-Jan-19 22:00N 36°08' W 005°23'2 3.7
2018-Jan-19 21:30N 36°06' W 005°22'3 5.6
2018-Jan-19 21:00N 36°04' W 005°19'3 6.9
2018-Jan-19 20:30N 36°05' W 005°15'3 6.4
2018-Jan-19 20:00N 36°06' W 005°11'1 2.7
2018-Jan-19 19:30N 36°05' W 005°10'4 7.7
2018-Jan-19 19:00N 36°06' W 005°05'5 9.9
2018-Jan-19 18:30N 36°07' W 004°59'510.3
2018-Jan-19 18:00N 36°08' W 004°53'510.4
2018-Jan-19 17:30N 36°09' W 004°47'611.2
2018-Jan-19 16:59N 36°10' W 004°39'611.8
2018-Jan-19 16:29N 36°11' W 004°32'  

Dump ship's entire track history